Time;durP1;ratioP1;P1;durP2;ratioP2;P2;SDS_P1;SDS_P2;PMS_P1;PMS_P2;Temp;Humidity;BMP_temperature;BMP_pressure;BME280_temperature;BME280_humidity;BME280_pressure;Samples;Min_cycle;Max_cycle;Signal;HPM_P1;HPM_P2
2022/02/21 00:01:25;;;;;;;2.13;0.90;;;9.50;99.90;;;;;;5054503;28;20208;-64
2022/02/21 00:03:52;;;;;;;2.80;0.98;;;9.50;99.90;;;;;;5053481;28;20204;-64
2022/02/21 00:06:20;;;;;;;1.08;0.93;;;9.50;99.90;;;;;;5054009;28;20250;-64
2022/02/21 00:08:48;;;;;;;2.22;0.82;;;9.60;99.90;;;;;;5052874;28;20208;-65
2022/02/21 00:11:15;;;;;;;3.58;0.93;;;9.60;99.90;;;;;;5053179;28;20216;-64
2022/02/21 00:13:42;;;;;;;1.70;0.98;;;9.60;99.90;;;;;;5053125;28;20298;-64
2022/02/21 00:16:09;;;;;;;0.68;0.47;;;9.60;99.90;;;;;;5053257;28;20228;-64
2022/02/21 00:18:36;;;;;;;1.55;0.60;;;9.30;99.90;;;;;;5053322;28;20579;-63
2022/02/21 00:21:03;;;;;;;1.13;0.68;;;8.60;99.90;;;;;;5052699;28;20221;-63
2022/02/21 00:23:31;;;;;;;0.85;0.50;;;8.00;99.90;;;;;;5053058;28;20205;-63
2022/02/21 00:25:58;;;;;;;4.18;0.80;;;7.50;99.90;;;;;;5056694;28;20197;-63
2022/02/21 00:28:25;;;;;;;2.92;0.80;;;7.20;99.90;;;;;;5057209;28;20212;-63
2022/02/21 00:30:52;;;;;;;1.52;0.80;;;6.90;99.90;;;;;;5056844;28;20748;-63
2022/02/21 00:33:19;;;;;;;1.50;1.00;;;6.70;99.90;;;;;;5057156;28;20198;-63
2022/02/21 00:35:47;;;;;;;2.38;0.70;;;6.60;99.90;;;;;;5056782;28;20576;-63
2022/02/21 00:38:14;;;;;;;2.22;0.80;;;6.50;99.90;;;;;;5058282;28;20205;-63
2022/02/21 00:40:42;;;;;;;0.88;0.65;;;6.40;99.90;;;;;;5071131;28;20229;-63
2022/02/21 00:43:09;;;;;;;1.58;0.75;;;6.30;99.90;;;;;;5072015;28;20189;-63
2022/02/21 00:45:36;;;;;;;0.90;0.60;;;6.20;99.90;;;;;;5071288;28;20201;-64
2022/02/21 00:48:04;;;;;;;1.20;0.70;;;6.20;99.90;;;;;;5068334;28;20572;-64
2022/02/21 00:50:31;;;;;;;0.80;0.60;;;6.10;99.90;;;;;;5056996;28;20233;-63
2022/02/21 00:52:58;;;;;;;0.70;0.60;;;6.10;99.90;;;;;;5056619;28;20206;-64
2022/02/21 00:55:25;;;;;;;1.73;0.65;;;6.10;99.90;;;;;;5056494;28;20229;-64
2022/02/21 00:57:53;;;;;;;4.30;0.70;;;6.20;99.90;;;;;;5056458;28;20700;-63
2022/02/21 01:00:21;;;;;;;1.65;0.60;;;6.20;99.90;;;;;;5056679;28;20244;-63
2022/02/21 01:02:48;;;;;;;0.80;0.57;;;6.30;99.90;;;;;;5056799;28;20198;-64
2022/02/21 01:05:15;;;;;;;0.75;0.75;;;6.30;99.90;;;;;;5056783;28;20194;-64
2022/02/21 01:07:42;;;;;;;1.45;0.80;;;6.30;99.90;;;;;;5056923;28;20208;-63
2022/02/21 01:10:10;;;;;;;1.23;0.57;;;6.30;99.90;;;;;;5056189;28;20728;-64
2022/02/21 01:12:37;;;;;;;1.80;1.25;;;6.30;99.90;;;;;;5056440;28;20212;-64
2022/02/21 01:15:07;;;;;;;1.40;0.70;;;6.30;99.90;;;;;;5057145;28;20229;-64
2022/02/21 01:17:34;;;;;;;2.25;0.77;;;6.30;99.90;;;;;;5056137;28;20723;-64
2022/02/21 01:20:06;;;;;;;0.57;0.57;;;6.30;99.90;;;;;;5056099;28;20229;-64
2022/02/21 01:22:33;;;;;;;3.00;0.85;;;6.30;99.90;;;;;;5056125;28;20244;-63
2022/02/21 01:25:00;;;;;;;0.90;0.65;;;6.30;99.90;;;;;;5056236;28;20205;-64
2022/02/21 01:27:27;;;;;;;1.67;0.70;;;6.30;99.90;;;;;;5056098;28;20217;-63
2022/02/21 01:29:54;;;;;;;1.50;0.70;;;6.30;99.90;;;;;;5055862;28;20713;-62
2022/02/21 01:32:23;;;;;;;1.30;0.60;;;6.30;99.90;;;;;;5055989;28;20201;-63
2022/02/21 01:34:50;;;;;;;0.60;0.50;;;6.30;99.90;;;;;;5056072;28;20222;-63
2022/02/21 01:37:17;;;;;;;1.65;0.85;;;6.30;99.90;;;;;;5057116;28;20202;-63
2022/02/21 01:39:44;;;;;;;1.25;0.95;;;6.30;99.90;;;;;;5057936;28;20229;-64
2022/02/21 01:42:11;;;;;;;1.00;0.90;;;6.40;99.90;;;;;;5056428;28;20202;-63
2022/02/21 01:44:40;;;;;;;1.27;0.80;;;6.40;99.90;;;;;;5056493;28;20194;-64
2022/02/21 01:47:09;;;;;;;0.90;0.70;;;6.40;99.90;;;;;;5056636;28;20304;-64
2022/02/21 01:49:38;;;;;;;2.75;0.80;;;6.40;99.90;;;;;;5056902;28;20225;-63
2022/02/21 01:52:07;;;;;;;1.30;0.60;;;6.40;99.90;;;;;;5056960;28;20544;-64
2022/02/21 01:54:34;;;;;;;1.00;0.77;;;6.50;99.90;;;;;;5056709;28;20228;-62
2022/02/21 01:57:01;;;;;;;0.60;0.60;;;6.50;99.90;;;;;;5056249;28;20559;-64
2022/02/21 01:59:28;;;;;;;1.33;0.85;;;6.50;99.90;;;;;;5056215;28;20230;-64
2022/02/21 02:01:55;;;;;;;1.85;0.55;;;6.50;99.90;;;;;;5056077;28;20570;-64
2022/02/21 02:04:25;;;;;;;0.80;0.50;;;6.50;99.90;;;;;;5056111;28;20201;-64
2022/02/21 02:06:53;;;;;;;1.02;0.95;;;6.50;99.90;;;;;;5056130;28;20201;-64
2022/02/21 02:09:21;;;;;;;1.25;0.80;;;6.40;99.90;;;;;;5056115;28;20233;-64
2022/02/21 02:11:49;;;;;;;1.00;0.88;;;6.40;99.90;;;;;;5055961;28;20209;-65
2022/02/21 02:14:31;;;;;;;2.08;0.95;;;6.50;99.90;;;;;;5055586;28;20694;-64
2022/02/21 02:17:02;;;;;;;1.70;0.60;;;6.50;99.90;;;;;;5053966;28;20209;-64
2022/02/21 02:19:29;;;;;;;1.40;0.73;;;6.50;99.90;;;;;;5055158;28;20256;-64
2022/02/21 02:21:58;;;;;;;1.95;0.88;;;6.40;99.90;;;;;;5055501;28;20229;-64
2022/02/21 02:24:27;;;;;;;0.95;0.75;;;6.30;99.90;;;;;;5054922;28;20228;-63
2022/02/21 02:26:55;;;;;;;2.97;1.02;;;6.10;99.90;;;;;;5054991;28;20217;-64
2022/02/21 02:29:23;;;;;;;1.90;1.60;;;5.90;99.90;;;;;;5055331;28;20225;-63
2022/02/21 02:31:50;;;;;;;2.75;0.82;;;5.80;99.90;;;;;;5055021;28;20673;-64
2022/02/21 02:34:18;;;;;;;1.45;1.20;;;5.60;99.90;;;;;;5055873;28;20225;-63
2022/02/21 02:36:48;;;;;;;4.88;1.20;;;5.50;99.90;;;;;;5054749;28;20208;-63
2022/02/21 02:39:15;;;;;;;2.10;0.90;;;5.50;99.90;;;;;;5054365;28;20316;-63
2022/02/21 02:41:44;;;;;;;1.42;0.93;;;5.40;99.90;;;;;;5054565;28;20216;-63
2022/02/21 02:44:11;;;;;;;2.92;1.00;;;5.50;99.90;;;;;;5054836;28;20232;-63
2022/02/21 02:46:39;;;;;;;3.53;1.23;;;5.40;99.90;;;;;;5055105;28;20197;-64
2022/02/21 02:49:06;;;;;;;6.32;1.83;;;5.40;99.90;;;;;;5053808;28;20221;-63
2022/02/21 02:51:33;;;;;;;4.20;1.10;;;5.30;99.90;;;;;;5054532;28;20202;-63
2022/02/21 02:54:00;;;;;;;3.85;1.48;;;5.30;99.90;;;;;;5054991;28;20674;-63
2022/02/21 02:56:27;;;;;;;6.90;1.55;;;5.30;99.90;;;;;;5054548;28;20244;-64
2022/02/21 02:58:55;;;;;;;4.90;1.30;;;5.30;99.90;;;;;;5054035;28;20205;-63
2022/02/21 03:01:22;;;;;;;4.72;1.33;;;5.30;99.90;;;;;;5056472;28;20209;-63
2022/02/21 03:03:49;;;;;;;4.07;1.10;;;5.30;99.90;;;;;;5056858;28;20212;-63
2022/02/21 03:06:16;;;;;;;1.35;0.80;;;5.20;99.90;;;;;;5055307;28;20209;-63
2022/02/21 03:08:43;;;;;;;4.35;0.68;;;4.90;99.90;;;;;;5054616;28;20198;-65
2022/02/21 03:11:10;;;;;;;1.23;0.65;;;4.60;99.90;;;;;;5055681;28;20206;-63
2022/02/21 03:13:38;;;;;;;1.02;0.73;;;4.30;99.90;;;;;;5058166;28;20206;-63
2022/02/21 03:16:07;;;;;;;2.95;1.00;;;4.00;99.90;;;;;;5054958;28;20221;-62
2022/02/21 03:18:34;;;;;;;1.70;1.33;;;3.80;99.90;;;;;;5055720;28;20697;-63
2022/02/21 03:21:01;;;;;;;3.38;1.42;;;3.70;99.90;;;;;;5064660;28;20221;-63
2022/02/21 03:23:28;;;;;;;3.40;1.40;;;3.70;99.90;;;;;;5069516;28;20205;-63
2022/02/21 03:25:55;;;;;;;2.92;1.25;;;3.70;99.90;;;;;;5069968;28;20201;-63
2022/02/21 03:28:22;;;;;;;4.72;1.58;;;3.70;99.90;;;;;;5071287;28;20212;-64
2022/02/21 03:30:52;;;;;;;6.80;3.15;;;3.70;99.90;;;;;;5065133;28;20233;-63
2022/02/21 03:33:21;;;;;;;5.25;1.17;;;3.70;99.90;;;;;;5067468;28;20202;-64
2022/02/21 03:35:48;;;;;;;6.68;2.15;;;3.80;99.90;;;;;;5067370;28;20229;-64
2022/02/21 03:38:15;;;;;;;2.00;1.80;;;3.80;99.90;;;;;;5066498;28;20301;-64
2022/02/21 03:40:42;;;;;;;5.85;2.00;;;3.80;99.90;;;;;;5064784;28;20220;-64
2022/02/21 03:43:10;;;;;;;5.63;2.45;;;3.80;99.90;;;;;;5066730;28;20205;-64
2022/02/21 03:45:37;;;;;;;5.50;1.55;;;3.90;99.90;;;;;;5065905;28;20201;-64
2022/02/21 03:48:04;;;;;;;10.82;2.40;;;3.90;99.90;;;;;;5068080;28;20197;-64
2022/02/21 03:50:33;;;;;;;4.13;1.25;;;4.00;99.90;;;;;;5062623;28;20228;-64
2022/02/21 03:53:00;;;;;;;13.15;2.15;;;4.00;99.90;;;;;;5061137;28;20217;-63
2022/02/21 03:55:27;;;;;;;8.27;3.10;;;4.00;99.90;;;;;;5055720;28;20725;-64
2022/02/21 03:57:54;;;;;;;6.95;2.08;;;4.10;99.90;;;;;;5055245;28;20206;-64
2022/02/21 04:00:22;;;;;;;8.57;1.98;;;4.10;99.90;;;;;;5054548;28;20225;-63
2022/02/21 04:02:49;;;;;;;10.18;2.15;;;4.20;99.90;;;;;;5054794;28;20553;-61
2022/02/21 04:05:16;;;;;;;9.20;2.20;;;4.20;99.90;;;;;;5056801;28;20194;-65
2022/02/21 04:09:22;;;;;;;5.47;1.92;;;4.20;99.90;;;;;;5097648;27;20759;-64
2022/02/21 04:11:50;;;;;;;9.98;4.68;;;4.20;99.90;;;;;;5096229;28;20211;-64
2022/02/21 04:14:17;;;;;;;12.63;2.65;;;4.20;99.90;;;;;;5095036;28;20250;-64
2022/02/21 04:16:44;;;;;;;9.15;1.75;;;4.20;99.90;;;;;;5093724;28;20196;-64
2022/02/21 04:19:11;;;;;;;10.27;2.55;;;4.20;99.90;;;;;;5092944;28;20216;-65
2022/02/21 04:21:40;;;;;;;4.03;2.30;;;4.20;99.90;;;;;;5109340;22;20229;-58
2022/02/21 04:24:07;;;;;;;5.70;2.53;;;4.20;99.90;;;;;;5055401;28;20269;-56
2022/02/21 04:26:36;;;;;;;12.75;2.85;;;4.20;99.90;;;;;;5051979;28;20205;-57
2022/02/21 04:29:03;;;;;;;7.28;2.45;;;4.20;99.90;;;;;;5051995;28;20713;-54
2022/02/21 04:31:30;;;;;;;4.22;1.55;;;4.30;99.90;;;;;;5050299;28;20224;-58
2022/02/21 04:33:57;;;;;;;9.82;3.15;;;4.30;99.90;;;;;;5050136;28;20208;-57
2022/02/21 04:36:24;;;;;;;17.23;3.60;;;4.30;99.90;;;;;;5049875;28;20219;-56
2022/02/21 04:38:51;;;;;;;9.63;2.30;;;4.30;99.90;;;;;;5049674;28;20194;-56
2022/02/21 04:41:18;;;;;;;12.32;3.83;;;4.30;99.90;;;;;;5049906;28;20210;-58
2022/02/21 04:43:47;;;;;;;6.97;2.00;;;4.30;99.90;;;;;;5050014;28;20224;-58
2022/02/21 04:46:14;;;;;;;8.45;2.30;;;4.30;99.90;;;;;;5049899;28;20205;-57
2022/02/21 04:48:41;;;;;;;8.80;1.83;;;4.30;99.90;;;;;;5049888;28;20229;-58
2022/02/21 04:51:08;;;;;;;11.35;2.60;;;4.30;99.90;;;;;;5049777;28;20260;-59
2022/02/21 04:53:35;;;;;;;9.82;2.50;;;4.30;99.90;;;;;;5049353;28;20706;-58
2022/02/21 04:56:02;;;;;;;6.40;2.20;;;4.30;99.90;;;;;;5049782;28;20277;-57
2022/02/21 04:58:29;;;;;;;9.93;2.75;;;4.40;99.90;;;;;;5049783;28;20221;-58
2022/02/21 05:00:58;;;;;;;6.78;1.85;;;4.50;99.90;;;;;;5049582;28;20209;-57
2022/02/21 05:03:25;;;;;;;22.10;3.22;;;4.50;99.90;;;;;;5049221;28;20222;-57
2022/02/21 05:05:52;;;;;;;8.75;2.10;;;4.60;99.90;;;;;;5049518;28;20324;-59
2022/02/21 05:08:19;;;;;;;10.60;2.45;;;4.60;99.90;;;;;;5049445;28;20619;-57
2022/02/21 05:10:46;;;;;;;6.15;1.70;;;4.60;99.90;;;;;;5049391;28;20600;-57
2022/02/21 05:13:13;;;;;;;4.90;1.38;;;4.50;99.90;;;;;;5049182;28;20222;-58
2022/02/21 05:15:40;;;;;;;8.20;1.80;;;4.50;99.90;;;;;;5049340;28;20212;-57
2022/02/21 05:18:09;;;;;;;3.38;1.65;;;4.40;99.90;;;;;;5049246;28;20569;-57
2022/02/21 05:20:36;;;;;;;4.47;1.30;;;4.40;99.90;;;;;;5036419;28;20206;-56
2022/02/21 05:23:03;;;;;;;2.60;1.60;;;4.30;99.90;;;;;;5035574;28;20315;-56
2022/02/21 05:25:30;;;;;;;8.30;1.98;;;4.10;99.90;;;;;;5035951;28;20553;-57
2022/02/21 05:27:57;;;;;;;2.65;1.67;;;3.90;99.90;;;;;;5035436;28;20697;-56
2022/02/21 05:30:24;;;;;;;3.05;1.42;;;3.70;99.90;;;;;;5035473;28;20670;-55
2022/02/21 05:32:52;;;;;;;9.48;2.08;;;3.40;99.90;;;;;;5035559;28;20257;-55
2022/02/21 05:35:20;;;;;;;6.55;2.03;;;3.20;99.90;;;;;;5035762;28;20305;-56
2022/02/21 05:37:47;;;;;;;8.98;1.67;;;3.10;99.90;;;;;;5035281;28;20654;-56
2022/02/21 05:40:15;;;;;;;9.10;1.98;;;3.00;99.90;;;;;;5036025;28;20260;-57
2022/02/21 05:42:42;;;;;;;7.13;1.70;;;3.00;99.90;;;;;;5039971;28;20249;-55
2022/02/21 05:45:09;;;;;;;6.38;1.58;;;2.90;99.90;;;;;;5035556;28;20206;-57
2022/02/21 05:47:36;;;;;;;7.00;1.90;;;2.90;99.90;;;;;;5035078;28;20199;-57
2022/02/21 05:50:04;;;;;;;7.25;1.80;;;2.80;99.90;;;;;;5035352;28;20206;-56
2022/02/21 05:52:33;;;;;;;4.13;2.00;;;2.80;99.90;;;;;;5035358;28;20244;-57
2022/02/21 05:55:00;;;;;;;4.28;1.80;;;2.80;99.90;;;;;;5036066;28;20301;-56
2022/02/21 05:57:29;;;;;;;5.63;1.55;;;2.80;99.90;;;;;;5035919;28;20593;-56
2022/02/21 05:59:59;;;;;;;4.60;1.40;;;2.80;99.90;;;;;;5036258;28;20341;-57
2022/02/21 06:02:26;;;;;;;6.05;1.60;;;2.80;99.90;;;;;;5035378;28;20233;-56
2022/02/21 06:04:55;;;;;;;4.90;2.00;;;2.80;99.90;;;;;;5035564;28;20199;-56
2022/02/21 06:07:22;;;;;;;5.50;1.80;;;2.80;99.90;;;;;;5035627;28;20206;-57
2022/02/21 06:09:50;;;;;;;7.00;1.70;;;2.80;99.90;;;;;;5034951;28;20237;-56
2022/02/21 06:12:18;;;;;;;4.55;1.98;;;2.80;99.90;;;;;;5035586;28;20228;-56
2022/02/21 06:14:45;;;;;;;13.00;2.25;;;2.80;99.90;;;;;;5035435;28;20234;-57
2022/02/21 06:17:12;;;;;;;7.75;2.00;;;2.70;99.90;;;;;;5035355;28;20297;-57
2022/02/21 06:19:39;;;;;;;7.65;1.92;;;2.70;99.90;;;;;;5035355;28;20202;-55
2022/02/21 06:22:06;;;;;;;5.10;1.65;;;2.70;99.90;;;;;;5034742;28;20317;-56
2022/02/21 06:24:33;;;;;;;5.15;1.80;;;2.70;99.90;;;;;;5035042;28;20205;-56
2022/02/21 06:27:04;;;;;;;6.22;1.77;;;2.80;99.90;;;;;;5037959;28;20210;-55
2022/02/21 06:29:31;;;;;;;4.25;1.58;;;2.90;99.90;;;;;;5038465;28;20226;-56
2022/02/21 06:31:58;;;;;;;6.28;1.90;;;3.00;99.90;;;;;;5035655;28;20824;-56
2022/02/21 06:34:25;;;;;;;7.68;2.40;;;3.00;99.90;;;;;;5037216;28;20278;-56
2022/02/21 06:36:52;;;;;;;4.97;1.75;;;3.00;99.90;;;;;;5037001;28;20293;-56
2022/02/21 06:39:20;;;;;;;3.55;1.60;;;3.00;99.90;;;;;;5036892;28;20287;-56
2022/02/21 06:41:48;;;;;;;4.47;1.70;;;3.00;99.90;;;;;;5036135;28;20237;-57
2022/02/21 06:44:17;;;;;;;8.20;1.95;;;3.00;99.90;;;;;;5035951;28;20204;-56
2022/02/21 06:46:45;;;;;;;4.50;1.85;;;3.00;99.90;;;;;;5037596;28;20352;-55
2022/02/21 06:49:12;;;;;;;4.93;2.50;;;3.00;99.90;;;;;;5036939;28;20215;-56
2022/02/21 06:51:39;;;;;;;4.60;1.98;;;3.00;99.90;;;;;;5037863;28;20219;-55
2022/02/21 06:54:08;;;;;;;10.57;2.45;;;3.00;99.90;;;;;;5036579;28;20694;-57
2022/02/21 06:56:36;;;;;;;2.15;1.67;;;3.00;99.90;;;;;;5034666;28;20662;-58
2022/02/21 06:59:03;;;;;;;5.07;1.80;;;3.10;99.90;;;;;;5034779;28;20198;-57
2022/02/21 07:01:31;;;;;;;7.18;2.33;;;3.10;99.90;;;;;;5034086;28;20203;-57
2022/02/21 07:03:58;;;;;;;5.95;2.10;;;3.10;99.90;;;;;;5034322;28;20213;-57
2022/02/21 07:06:25;;;;;;;3.75;1.63;;;3.10;99.90;;;;;;5034554;28;20213;-58
2022/02/21 07:08:53;;;;;;;9.50;2.47;;;3.10;99.90;;;;;;5033844;28;20214;-58
2022/02/21 07:11:22;;;;;;;10.25;2.38;;;3.20;99.90;;;;;;5033501;28;20717;-57
2022/02/21 07:13:49;;;;;;;8.52;2.15;;;3.20;99.90;;;;;;5034164;28;20289;-56
2022/02/21 07:16:16;;;;;;;4.85;2.67;;;3.20;99.90;;;;;;5034320;28;20210;-58
2022/02/21 07:18:44;;;;;;;8.93;2.25;;;3.30;99.90;;;;;;5040668;28;20192;-61
2022/02/21 07:21:12;;;;;;;16.63;2.10;;;3.30;99.90;;;;;;5035090;28;20264;-62
2022/02/21 07:23:39;;;;;;;10.52;2.45;;;3.40;99.90;;;;;;5033700;28;20230;-61
2022/02/21 07:26:06;;;;;;;5.75;2.00;;;3.50;99.90;;;;;;5033599;28;20566;-62
2022/02/21 07:28:34;;;;;;;8.70;2.45;;;3.60;99.90;;;;;;5035200;28;20222;-62
2022/02/21 07:31:02;;;;;;;9.23;2.40;;;3.70;99.90;;;;;;5033653;28;20213;-60
2022/02/21 07:33:31;;;;;;;10.32;2.40;;;3.70;99.90;;;;;;5033257;28;20226;-62
2022/02/21 07:35:59;;;;;;;8.75;2.95;;;3.70;99.90;;;;;;5033382;28;20205;-62
2022/02/21 07:38:26;;;;;;;8.63;2.88;;;3.70;99.90;;;;;;5033272;28;20194;-61
2022/02/21 07:40:54;;;;;;;8.27;1.83;;;3.70;99.90;;;;;;5033975;28;20206;-63
2022/02/21 07:43:22;;;;;;;5.20;2.35;;;3.70;99.90;;;;;;5033539;28;20228;-63
2022/02/21 07:45:49;;;;;;;8.25;2.70;;;3.70;99.90;;;;;;5033608;28;20202;-62
2022/02/21 07:48:16;;;;;;;10.38;2.40;;;3.80;99.90;;;;;;5033028;28;20202;-62
2022/02/21 07:50:43;;;;;;;7.13;2.55;;;3.80;99.90;;;;;;5034055;28;20206;-61
2022/02/21 07:53:12;;;;;;;5.57;3.05;;;3.90;99.90;;;;;;5033443;28;20230;-61
2022/02/21 07:55:39;;;;;;;3.80;2.00;;;4.00;99.90;;;;;;5033408;28;20212;-61
2022/02/21 07:58:06;;;;;;;8.68;2.13;;;4.10;99.90;;;;;;5033054;28;20226;-59
2022/02/21 08:00:33;;;;;;;4.72;2.15;;;4.20;99.90;;;;;;5033541;28;20208;-61
2022/02/21 08:03:00;;;;;;;4.70;2.35;;;4.30;99.90;;;;;;5033261;28;20233;-61
2022/02/21 08:05:27;;;;;;;8.27;3.15;;;4.40;99.90;;;;;;5033247;28;20215;-62
2022/02/21 08:07:54;;;;;;;10.38;2.85;;;4.50;99.90;;;;;;5033057;28;20253;-60
2022/02/21 08:10:23;;;;;;;8.35;2.25;;;4.50;99.90;;;;;;5033257;28;20576;-61
2022/02/21 08:12:50;;;;;;;8.27;2.47;;;4.50;99.90;;;;;;5033384;28;20218;-61
2022/02/21 08:15:17;;;;;;;9.63;2.70;;;4.60;99.90;;;;;;5033647;28;20213;-61
2022/02/21 08:17:47;;;;;;;7.75;3.80;;;4.60;99.90;;;;;;5037223;28;20598;-61
2022/02/21 08:20:16;;;;;;;5.45;2.38;;;4.60;99.90;;;;;;5032863;28;20213;-59
2022/02/21 08:22:44;;;;;;;11.05;2.40;;;4.70;99.90;;;;;;5032707;28;20249;-62
2022/02/21 08:25:13;;;;;;;11.65;2.38;;;4.70;99.90;;;;;;5033109;28;20210;-60
2022/02/21 08:27:42;;;;;;;9.57;2.80;;;4.80;99.90;;;;;;5033262;28;20210;-62
2022/02/21 08:30:12;;;;;;;13.02;2.42;;;4.80;99.90;;;;;;5033210;28;20230;-60
2022/02/21 08:32:40;;;;;;;7.72;2.30;;;4.90;99.90;;;;;;5034958;28;20726;-62
2022/02/21 08:35:08;;;;;;;5.97;2.42;;;5.00;99.90;;;;;;5032848;28;20741;-59
2022/02/21 08:37:36;;;;;;;10.82;2.33;;;5.00;99.90;;;;;;5033904;28;20211;-62
2022/02/21 08:40:03;;;;;;;4.28;2.42;;;5.10;99.90;;;;;;5033327;28;20214;-60
2022/02/21 08:42:30;;;;;;;5.93;1.55;;;5.20;99.90;;;;;;5032416;28;20230;-62
2022/02/21 08:44:59;;;;;;;8.82;2.95;;;5.30;99.30;;;;;;5032831;28;20211;-60
2022/02/21 08:47:26;;;;;;;9.85;2.55;;;5.30;98.90;;;;;;5033077;28;20212;-61
2022/02/21 08:49:54;;;;;;;6.53;2.90;;;5.40;98.80;;;;;;5032833;28;20215;-62
2022/02/21 08:52:21;;;;;;;6.75;2.28;;;5.40;98.90;;;;;;5032568;28;20718;-61
2022/02/21 08:54:48;;;;;;;10.88;3.05;;;5.40;98.60;;;;;;5034049;28;20209;-61
2022/02/21 08:57:16;;;;;;;9.00;2.70;;;5.50;98.30;;;;;;5036098;28;20293;-61
2022/02/21 08:59:43;;;;;;;5.32;2.17;;;5.60;97.80;;;;;;5036463;28;20195;-60
2022/02/21 09:02:12;;;;;;;9.93;2.05;;;5.50;97.80;;;;;;5036044;28;20225;-59
2022/02/21 09:04:39;;;;;;;8.52;2.50;;;5.60;97.60;;;;;;5036189;28;20206;-59
2022/02/21 09:07:06;;;;;;;10.25;2.83;;;5.70;97.70;;;;;;5036107;28;20198;-60
2022/02/21 09:09:33;;;;;;;5.65;3.00;;;5.70;97.30;;;;;;5036174;28;20694;-60
2022/02/21 09:12:00;;;;;;;7.20;2.40;;;5.80;96.80;;;;;;5036848;28;20223;-60
2022/02/21 09:14:27;;;;;;;9.23;2.40;;;5.80;96.40;;;;;;5036102;28;20205;-58
2022/02/21 09:16:54;;;;;;;7.18;2.22;;;5.80;96.20;;;;;;5036281;28;20204;-62
2022/02/21 09:19:23;;;;;;;6.25;2.00;;;5.80;96.30;;;;;;5036549;28;20213;-61
2022/02/21 09:21:50;;;;;;;6.35;2.10;;;5.90;95.50;;;;;;5035916;28;20237;-61
2022/02/21 09:24:17;;;;;;;6.30;2.10;;;6.00;95.30;;;;;;5035866;28;20552;-61
2022/02/21 09:26:44;;;;;;;9.80;2.35;;;6.00;94.70;;;;;;5035718;28;20214;-60
2022/02/21 09:29:11;;;;;;;4.95;2.38;;;6.00;94.70;;;;;;5035624;28;20222;-60
2022/02/21 09:31:38;;;;;;;7.50;2.80;;;6.10;94.70;;;;;;5035564;28;20592;-60
2022/02/21 09:34:05;;;;;;;6.43;2.20;;;6.10;94.30;;;;;;5035382;28;20206;-61
2022/02/21 09:36:34;;;;;;;6.68;2.78;;;6.20;94.20;;;;;;5035614;28;20210;-61
2022/02/21 09:39:01;;;;;;;9.88;2.83;;;6.20;93.60;;;;;;5035617;28;20206;-58
2022/02/21 09:41:28;;;;;;;8.95;2.40;;;6.20;92.90;;;;;;5035582;28;20210;-61
2022/02/21 09:43:55;;;;;;;6.00;2.58;;;6.30;93.10;;;;;;5035669;28;20206;-62
2022/02/21 09:46:29;;;;;;;5.55;2.35;;;6.30;92.70;;;;;;5035385;28;20584;-60
2022/02/21 09:48:58;;;;;;;8.55;2.08;;;6.40;92.30;;;;;;5035141;28;20222;-61
2022/02/21 09:51:25;;;;;;;8.68;2.55;;;6.40;92.50;;;;;;5034512;28;20463;-59
2022/02/21 09:53:54;;;;;;;10.25;4.35;;;6.50;92.80;;;;;;5035217;28;20209;-59
2022/02/21 09:56:21;;;;;;;7.60;2.80;;;6.50;92.30;;;;;;5035358;28;20225;-60
2022/02/21 09:58:54;;;;;;;9.35;2.85;;;6.60;92.10;;;;;;5035336;28;20202;-59
2022/02/21 10:01:24;;;;;;;7.50;2.70;;;6.60;91.60;;;;;;5035313;28;20218;-61
2022/02/21 10:03:54;;;;;;;9.90;4.38;;;6.70;91.30;;;;;;5036029;28;20206;-61
2022/02/21 10:06:24;;;;;;;9.07;3.20;;;6.70;90.60;;;;;;5034872;28;20508;-60
2022/02/21 10:08:54;;;;;;;10.95;3.22;;;6.80;90.30;;;;;;5033744;28;20449;-60
2022/02/21 10:11:28;;;;;;;9.23;3.20;;;6.80;90.30;;;;;;5034710;28;20194;-61
2022/02/21 10:13:59;;;;;;;6.88;2.60;;;6.80;90.30;;;;;;5034876;28;20632;-60
2022/02/21 10:16:36;;;;;;;7.95;2.55;;;6.80;90.00;;;;;;5034862;28;20202;-59
2022/02/21 10:19:20;;;;;;;11.30;2.65;;;6.90;90.10;;;;;;5035038;28;20186;-62
2022/02/21 10:22:06;;;;;;;10.50;2.80;;;6.90;88.60;;;;;;5034490;28;20245;-58
2022/02/21 10:24:42;;;;;;;7.78;2.58;;;6.90;88.50;;;;;;5059221;22;20621;-63
2022/02/21 10:27:12;;;;;;;9.68;3.10;;;6.90;86.90;;;;;;5034923;28;20191;-63
2022/02/21 10:29:48;;;;;;;8.48;2.50;;;6.90;86.80;;;;;;5037305;28;20741;-63
2022/02/21 10:32:17;;;;;;;10.10;2.75;;;6.90;86.60;;;;;;5037341;28;20193;-64
2022/02/21 10:34:45;;;;;;;9.02;2.83;;;6.90;86.70;;;;;;5037238;28;20226;-64
2022/02/21 10:37:14;;;;;;;7.03;2.58;;;6.90;86.40;;;;;;5036974;28;20202;-64
2022/02/21 10:39:42;;;;;;;12.20;3.53;;;6.90;86.70;;;;;;5034997;28;20697;-64
2022/02/21 10:42:09;;;;;;;12.13;3.25;;;6.90;86.80;;;;;;5035363;28;20199;-64
2022/02/21 10:44:38;;;;;;;7.38;3.40;;;6.90;86.70;;;;;;5034953;28;20322;-64
2022/02/21 10:47:11;;;;;;;9.68;2.85;;;7.00;86.80;;;;;;5035920;28;20202;-65
2022/02/21 10:49:48;;;;;;;8.07;3.00;;;6.90;86.10;;;;;;5035187;28;20222;-63
2022/02/21 10:52:18;;;;;;;4.10;3.08;;;6.90;86.50;;;;;;5035547;28;20186;-62
2022/02/21 10:54:47;;;;;;;7.78;4.57;;;6.80;86.50;;;;;;5034452;28;20229;-64
2022/02/21 10:57:17;;;;;;;6.45;3.92;;;6.80;86.50;;;;;;5034941;28;20221;-64
2022/02/21 10:59:44;;;;;;;9.43;3.42;;;6.70;87.00;;;;;;5034976;28;20217;-63
2022/02/21 11:02:15;;;;;;;11.65;2.95;;;6.80;87.40;;;;;;5034744;28;20205;-62
2022/02/21 11:04:43;;;;;;;8.75;4.53;;;6.80;87.50;;;;;;5034219;28;20218;-64
2022/02/21 11:07:12;;;;;;;11.88;3.45;;;6.80;87.30;;;;;;5034395;28;20225;-64
2022/02/21 11:09:40;;;;;;;5.45;2.45;;;6.80;86.90;;;;;;5034255;28;20229;-64
2022/02/21 11:12:10;;;;;;;7.18;2.95;;;6.80;86.20;;;;;;5034509;28;20207;-65
2022/02/21 11:14:40;;;;;;;6.00;2.80;;;6.80;86.50;;;;;;5034387;28;20223;-62
2022/02/21 11:17:09;;;;;;;6.38;2.70;;;6.80;86.20;;;;;;5033959;28;20290;-63
2022/02/21 11:19:36;;;;;;;4.00;2.97;;;7.00;86.10;;;;;;5034624;28;20256;-63
2022/02/21 11:22:04;;;;;;;9.80;3.55;;;7.10;84.90;;;;;;5034044;28;20693;-64
2022/02/21 11:24:33;;;;;;;6.88;2.75;;;7.10;84.70;;;;;;5034057;28;20230;-65
2022/02/21 11:27:13;;;;;;;7.05;3.40;;;7.20;83.90;;;;;;5034059;28;20294;-63
2022/02/21 11:29:47;;;;;;;7.32;2.60;;;7.30;83.00;;;;;;5034460;28;20214;-64
2022/02/21 11:32:18;;;;;;;4.97;2.60;;;7.20;82.30;;;;;;5034041;28;20209;-63
2022/02/21 11:34:47;;;;;;;6.97;2.60;;;7.10;83.40;;;;;;5034154;28;20245;-63
2022/02/21 11:37:25;;;;;;;9.95;3.42;;;7.00;85.80;;;;;;5034065;28;20234;-63
2022/02/21 11:39:59;;;;;;;10.38;3.70;;;6.90;88.00;;;;;;5033447;28;20293;-65
2022/02/21 11:42:33;;;;;;;4.53;2.33;;;6.90;90.10;;;;;;5033819;28;20208;-63
2022/02/21 11:45:02;;;;;;;6.18;3.15;;;6.90;90.60;;;;;;5034129;28;20229;-63
2022/02/21 11:47:35;;;;;;;5.25;1.75;;;6.80;90.90;;;;;;5033685;28;20203;-64
2022/02/21 11:50:03;;;;;;;4.78;2.50;;;6.70;91.70;;;;;;5034240;28;20214;-63
2022/02/21 11:52:35;;;;;;;6.65;2.53;;;6.70;92.20;;;;;;5033730;28;20209;-65
2022/02/21 11:55:03;;;;;;;4.20;2.72;;;6.50;92.80;;;;;;5034067;28;20698;-65
2022/02/21 11:57:38;;;;;;;5.63;2.17;;;6.50;93.50;;;;;;5033775;28;20199;-63
2022/02/21 12:00:39;;;;;;;3.72;1.95;;;6.30;94.80;;;;;;5034435;28;20182;-66
2022/02/21 12:03:10;;;;;;;6.50;2.42;;;6.20;96.20;;;;;;4972788;28;20193;-66
2022/02/21 12:05:37;;;;;;;4.53;2.08;;;5.90;97.60;;;;;;4972702;28;20215;-67
2022/02/21 12:08:20;;;;;;;2.42;1.85;;;5.70;98.90;;;;;;5001666;28;20701;-63
2022/02/21 12:11:17;;;;;;;3.70;2.15;;;5.50;99.90;;;;;;5038443;28;20305;-66
2022/02/21 12:14:18;;;;;;;5.65;1.88;;;5.20;99.90;;;;;;5045222;28;20213;-63
2022/02/21 12:17:07;;;;;;;4.57;1.70;;;5.00;99.90;;;;;;5037928;28;20202;-64
2022/02/21 12:19:37;;;;;;;3.25;2.05;;;4.90;99.90;;;;;;5044657;28;20197;-65
2022/02/21 12:22:18;;;;;;;2.67;1.80;;;4.90;99.90;;;;;;5035054;28;20214;-64
2022/02/21 12:25:19;;;;;;;2.58;1.70;;;4.80;99.90;;;;;;5034785;28;20256;-65
2022/02/21 12:28:15;;;;;;;2.08;1.60;;;4.70;99.90;;;;;;5033225;28;20222;-65
2022/02/21 12:30:47;;;;;;;4.18;1.60;;;4.70;99.90;;;;;;5036499;28;20222;-65
2022/02/21 12:33:24;;;;;;;3.22;1.55;;;4.70;99.90;;;;;;5037438;28;20225;-65
2022/02/21 12:35:54;;;;;;;5.55;1.67;;;4.60;99.90;;;;;;5037054;28;20238;-65
2022/02/21 12:38:22;;;;;;;2.13;1.60;;;4.50;99.90;;;;;;5036734;28;20659;-64
2022/02/21 12:41:02;;;;;;;2.63;1.35;;;4.50;99.90;;;;;;5037681;28;20205;-64
2022/02/21 12:43:50;;;;;;;2.75;1.85;;;4.50;99.90;;;;;;5037350;28;20600;-64
2022/02/21 12:46:18;;;;;;;5.57;2.22;;;4.50;99.90;;;;;;5037137;28;20194;-65
2022/02/21 12:48:47;;;;;;;4.85;1.70;;;4.40;99.90;;;;;;5041037;28;20209;-65
2022/02/21 12:51:26;;;;;;;2.65;1.67;;;4.40;99.90;;;;;;5043661;28;20344;-65
2022/02/21 12:53:58;;;;;;;3.58;1.70;;;4.40;99.90;;;;;;5042592;28;20222;-65
2022/02/21 12:56:26;;;;;;;5.63;1.75;;;4.40;99.90;;;;;;5039232;28;20194;-64
2022/02/21 12:58:53;;;;;;;2.83;1.98;;;4.40;99.90;;;;;;5036713;28;20693;-66
2022/02/21 13:01:22;;;;;;;3.78;1.70;;;4.40;99.90;;;;;;5037252;28;20646;-65
2022/02/21 13:03:56;;;;;;;3.67;1.60;;;4.40;99.90;;;;;;5037555;28;20226;-65
2022/02/21 13:06:25;;;;;;;2.20;1.60;;;4.40;99.90;;;;;;5037114;28;20190;-65